Time;durP1;ratioP1;P1;durP2;ratioP2;P2;SDS_P1;SDS_P2;PMS_P1;PMS_P2;Temp;Humidity;BMP_temperature;BMP_pressure;BME280_temperature;BME280_humidity;BME280_pressure;Samples;Min_cycle;Max_cycle;Signal;HPM_P1;HPM_P2
2023/01/15 00:00:12;;;;;;;1.40;0.50;;;;;;;;;;522785;28;1448;-63
2023/01/15 00:00:28;;;;;;;1.33;0.32;;;;;;;;;;524878;28;1791;-62
2023/01/15 00:00:43;;;;;;;1.47;0.30;;;;;;;;;;523990;28;1494;-62
2023/01/15 00:01:00;;;;;;;1.95;0.30;;;;;;;;;;522097;28;1303;-62
2023/01/15 00:01:25;;;;;;;1.20;0.30;;;;;;;;;;523224;28;1528;-62
2023/01/15 00:01:41;;;;;;;0.85;0.30;;;;;;;;;;522170;28;1352;-63
2023/01/15 00:01:57;;;;;;;1.00;0.40;;;;;;;;;;520493;28;1407;-62
2023/01/15 00:02:15;;;;;;;1.35;0.50;;;;;;;;;;520356;28;1144;-62
2023/01/15 00:02:31;;;;;;;1.30;0.40;;;;;;;;;;521575;28;1309;-63
2023/01/15 00:02:46;;;;;;;1.08;0.40;;;;;;;;;;523640;28;1185;-62
2023/01/15 00:03:02;;;;;;;0.80;0.37;;;;;;;;;;522279;28;1338;-62
2023/01/15 00:03:17;;;;;;;1.20;0.30;;;;;;;;;;523301;28;1331;-62
2023/01/15 00:03:32;;;;;;;1.53;0.30;;;;;;;;;;523128;28;1805;-62
2023/01/15 00:03:48;;;;;;;0.90;0.30;;;;;;;;;;522290;28;1366;-63
2023/01/15 00:04:05;;;;;;;0.45;0.30;;;;;;;;;;525825;28;1263;-62
2023/01/15 00:04:21;;;;;;;0.40;0.30;;;;;;;;;;523693;28;1289;-62
2023/01/15 00:04:36;;;;;;;0.50;0.23;;;;;;;;;;521091;28;1177;-62
2023/01/15 00:04:51;;;;;;;0.60;0.30;;;;;;;;;;522031;28;1288;-62
2023/01/15 00:05:07;;;;;;;0.87;0.40;;;;;;;;;;520748;28;1519;-62
2023/01/15 00:05:22;;;;;;;1.23;0.40;;;;;;;;;;518674;28;2133;-62
2023/01/15 00:05:37;;;;;;;1.55;0.40;;;;;;;;;;520121;28;1325;-62
2023/01/15 00:05:53;;;;;;;1.20;0.40;;;;;;;;;;519243;28;1365;-63
2023/01/15 00:06:08;;;;;;;1.00;0.40;;;;;;;;;;519975;28;1313;-62
2023/01/15 00:06:25;;;;;;;0.55;0.32;;;;;;;;;;521258;28;1447;-63
2023/01/15 00:06:41;;;;;;;0.63;0.40;;;;;;;;;;518838;28;1310;-63
2023/01/15 00:06:57;;;;;;;0.70;0.30;;;;;;;;;;522930;28;1615;-63
2023/01/15 00:07:12;;;;;;;0.50;0.30;;;;;;;;;;521934;28;1372;-63
2023/01/15 00:07:28;;;;;;;0.50;0.40;;;;;;;;;;521882;28;1284;-63
2023/01/15 00:07:43;;;;;;;1.20;0.40;;;;;;;;;;521794;28;1678;-61
2023/01/15 00:07:59;;;;;;;1.02;0.40;;;;;;;;;;520878;28;1392;-62
2023/01/15 00:08:15;;;;;;;0.53;0.30;;;;;;;;;;520832;28;1309;-62
2023/01/15 00:08:30;;;;;;;0.63;0.20;;;;;;;;;;519931;28;2750;-62
2023/01/15 00:08:45;;;;;;;0.90;0.30;;;;;;;;;;522148;28;1241;-62
2023/01/15 00:09:01;;;;;;;1.07;0.33;;;;;;;;;;522066;28;1383;-62
2023/01/15 00:09:16;;;;;;;1.15;0.30;;;;;;;;;;521090;28;1294;-63
2023/01/15 00:09:31;;;;;;;1.17;0.30;;;;;;;;;;522114;28;1431;-62
2023/01/15 00:09:47;;;;;;;0.93;0.32;;;;;;;;;;522420;28;1446;-62
2023/01/15 00:10:02;;;;;;;0.70;0.40;;;;;;;;;;521355;28;2004;-63
2023/01/15 00:10:18;;;;;;;1.93;0.50;;;;;;;;;;518767;28;1233;-62
2023/01/15 00:10:34;;;;;;;2.08;0.50;;;;;;;;;;520572;28;1468;-63
2023/01/15 00:10:50;;;;;;;0.90;0.30;;;;;;;;;;519380;28;1936;-62
2023/01/15 00:11:05;;;;;;;1.40;0.30;;;;;;;;;;519202;28;1381;-62
2023/01/15 00:11:21;;;;;;;1.20;0.40;;;;;;;;;;520910;28;1355;-63
2023/01/15 00:11:37;;;;;;;0.88;0.40;;;;;;;;;;521748;28;1695;-62
2023/01/15 00:11:52;;;;;;;1.67;0.40;;;;;;;;;;520370;28;1227;-62
2023/01/15 00:12:07;;;;;;;2.20;0.40;;;;;;;;;;522461;28;1487;-62
2023/01/15 00:12:23;;;;;;;1.58;0.40;;;;;;;;;;523035;28;1464;-62
2023/01/15 00:12:38;;;;;;;1.20;0.40;;;;;;;;;;522862;28;1113;-62
2023/01/15 00:12:53;;;;;;;1.27;0.50;;;;;;;;;;523574;28;1288;-62
2023/01/15 00:13:09;;;;;;;1.08;0.50;;;;;;;;;;522356;28;1472;-61
2023/01/15 00:13:24;;;;;;;0.90;0.40;;;;;;;;;;518757;28;1474;-62
2023/01/15 00:13:40;;;;;;;0.82;0.40;;;;;;;;;;521627;28;1565;-63
2023/01/15 00:13:55;;;;;;;1.33;0.50;;;;;;;;;;524041;28;1376;-62
2023/01/15 00:14:11;;;;;;;1.55;0.50;;;;;;;;;;523663;28;1256;-62
2023/01/15 00:14:26;;;;;;;1.20;0.40;;;;;;;;;;523542;28;1158;-62
2023/01/15 00:14:42;;;;;;;0.70;0.40;;;;;;;;;;523534;28;1371;-62
2023/01/15 00:14:57;;;;;;;1.00;0.40;;;;;;;;;;521584;28;2065;-62
2023/01/15 00:15:12;;;;;;;1.00;0.40;;;;;;;;;;523415;28;1101;-63
2023/01/15 00:15:27;;;;;;;0.80;0.40;;;;;;;;;;526352;28;1295;-63
2023/01/15 00:15:43;;;;;;;1.00;0.43;;;;;;;;;;523937;28;1419;-63
2023/01/15 00:16:06;;;;;;;1.30;0.50;;;;;;;;;;524353;28;1315;-63
2023/01/15 00:16:23;;;;;;;0.93;0.60;;;;;;;;;;523658;28;1777;-63
2023/01/15 00:16:39;;;;;;;0.98;0.50;;;;;;;;;;524582;28;1359;-63
2023/01/15 00:16:54;;;;;;;1.00;0.47;;;;;;;;;;526019;28;1504;-63
2023/01/15 00:17:10;;;;;;;1.50;0.50;;;;;;;;;;522702;28;1449;-63
2023/01/15 00:17:25;;;;;;;1.30;0.50;;;;;;;;;;523624;28;1529;-63
2023/01/15 00:17:40;;;;;;;1.13;0.50;;;;;;;;;;523771;28;1529;-63
2023/01/15 00:17:55;;;;;;;1.27;0.50;;;;;;;;;;522955;28;1351;-63
2023/01/15 00:18:11;;;;;;;1.00;0.50;;;;;;;;;;523942;28;2028;-63
2023/01/15 00:18:26;;;;;;;0.90;0.50;;;;;;;;;;523717;28;1470;-63
2023/01/15 00:18:42;;;;;;;0.90;0.50;;;;;;;;;;525407;28;1316;-63
2023/01/15 00:18:59;;;;;;;0.90;0.50;;;;;;;;;;525154;28;1414;-63
2023/01/15 00:19:14;;;;;;;0.70;0.40;;;;;;;;;;523882;28;1439;-64
2023/01/15 00:19:30;;;;;;;0.80;0.50;;;;;;;;;;521442;28;1361;-63
2023/01/15 00:19:45;;;;;;;0.80;0.50;;;;;;;;;;524124;28;2110;-63
2023/01/15 00:20:01;;;;;;;1.63;0.43;;;;;;;;;;524707;28;1450;-63
2023/01/15 00:20:16;;;;;;;2.20;0.50;;;;;;;;;;523951;28;1336;-63
2023/01/15 00:20:31;;;;;;;1.20;0.40;;;;;;;;;;522272;28;1276;-63
2023/01/15 00:20:47;;;;;;;1.30;0.40;;;;;;;;;;523899;28;1383;-63
2023/01/15 00:21:04;;;;;;;1.27;0.47;;;;;;;;;;526739;28;1235;-63
2023/01/15 00:21:21;;;;;;;1.08;0.50;;;;;;;;;;525959;28;1856;-63
2023/01/15 00:21:37;;;;;;;1.40;0.47;;;;;;;;;;523273;28;1339;-63
2023/01/15 00:21:52;;;;;;;1.23;0.40;;;;;;;;;;523293;28;1316;-63
2023/01/15 00:22:08;;;;;;;0.68;0.32;;;;;;;;;;524524;28;1318;-63
2023/01/15 00:22:23;;;;;;;0.53;0.30;;;;;;;;;;521705;28;1428;-62
2023/01/15 00:22:39;;;;;;;0.68;0.28;;;;;;;;;;520940;28;1191;-62
2023/01/15 00:22:54;;;;;;;1.00;0.40;;;;;;;;;;524199;28;2079;-62
2023/01/15 00:27:37;;;;;;;1.27;0.40;;;;;;;;;;524573;28;1437;-62
2023/01/15 00:27:44;;;;;;;0.88;0.30;;;;;;;;;;530108;27;1571;-62
2023/01/15 00:28:00;;;;;;;0.95;0.30;;;;;;;;;;530079;27;1254;-62
2023/01/15 00:28:15;;;;;;;0.73;0.30;;;;;;;;;;527983;27;1366;-62
2023/01/15 00:28:30;;;;;;;0.93;0.33;;;;;;;;;;524820;28;1194;-62
2023/01/15 00:28:47;;;;;;;1.50;0.40;;;;;;;;;;523931;28;1349;-62
2023/01/15 00:29:03;;;;;;;1.00;0.40;;;;;;;;;;524619;28;1150;-62
2023/01/15 00:29:19;;;;;;;0.68;0.40;;;;;;;;;;522165;28;1612;-62
2023/01/15 00:29:34;;;;;;;0.77;0.40;;;;;;;;;;522499;28;1300;-61
2023/01/15 00:29:50;;;;;;;1.55;0.40;;;;;;;;;;523123;28;1362;-61
2023/01/15 00:30:08;;;;;;;1.63;0.40;;;;;;;;;;524229;28;1343;-62
2023/01/15 00:30:23;;;;;;;1.20;0.40;;;;;;;;;;525218;27;1627;-63
2023/01/15 00:30:41;;;;;;;1.17;0.50;;;;;;;;;;525387;28;1478;-62
2023/01/15 00:30:56;;;;;;;1.08;0.43;;;;;;;;;;524690;28;1965;-62
2023/01/15 00:31:13;;;;;;;1.27;0.47;;;;;;;;;;525507;28;1379;-62
2023/01/15 00:31:29;;;;;;;1.30;0.40;;;;;;;;;;524805;28;1782;-62
2023/01/15 00:32:06;;;;;;;1.10;0.40;;;;;;;;;;521462;28;1380;-62
2023/01/15 00:32:21;;;;;;;0.77;0.50;;;;;;;;;;522884;28;1590;-62
2023/01/15 00:32:37;;;;;;;1.20;0.40;;;;;;;;;;525514;28;1280;-62
2023/01/15 00:32:52;;;;;;;1.90;0.50;;;;;;;;;;523396;28;1151;-63
2023/01/15 00:33:08;;;;;;;1.60;0.60;;;;;;;;;;523664;28;1354;-63
2023/01/15 00:33:24;;;;;;;0.98;0.50;;;;;;;;;;521891;28;1539;-62
2023/01/15 00:33:39;;;;;;;1.03;0.50;;;;;;;;;;520875;28;1311;-63
2023/01/15 00:33:54;;;;;;;1.13;0.50;;;;;;;;;;518614;28;1199;-63
2023/01/15 00:34:10;;;;;;;1.55;0.55;;;;;;;;;;517597;28;2078;-63
2023/01/15 00:34:26;;;;;;;1.83;0.60;;;;;;;;;;517901;28;1480;-63
2023/01/15 00:34:41;;;;;;;1.42;0.50;;;;;;;;;;518299;28;1554;-63
2023/01/15 00:34:59;;;;;;;1.40;0.52;;;;;;;;;;520484;28;1459;-62
2023/01/15 00:35:20;;;;;;;1.55;0.50;;;;;;;;;;520386;28;1126;-63
2023/01/15 00:35:35;;;;;;;3.28;0.60;;;;;;;;;;522552;28;1763;-62
2023/01/15 00:35:51;;;;;;;3.07;0.70;;;;;;;;;;523029;28;1128;-62
2023/01/15 00:36:06;;;;;;;2.73;0.63;;;;;;;;;;523756;28;1349;-62
2023/01/15 00:36:21;;;;;;;2.33;0.60;;;;;;;;;;523170;28;1568;-63
2023/01/15 00:36:39;;;;;;;1.27;0.60;;;;;;;;;;522500;28;1380;-62
2023/01/15 00:36:54;;;;;;;1.60;0.70;;;;;;;;;;523690;28;1546;-62
2023/01/15 00:37:09;;;;;;;2.03;0.70;;;;;;;;;;520294;28;1725;-63
2023/01/15 00:37:24;;;;;;;2.13;0.65;;;;;;;;;;520660;28;1161;-61
2023/01/15 00:37:40;;;;;;;2.10;0.67;;;;;;;;;;523174;28;1173;-63
2023/01/15 00:37:55;;;;;;;1.55;0.50;;;;;;;;;;524270;28;1465;-63
2023/01/15 00:38:10;;;;;;;1.47;0.57;;;;;;;;;;526343;28;1402;-63
2023/01/15 00:38:26;;;;;;;1.40;0.60;;;;;;;;;;522157;28;1213;-63
2023/01/15 00:38:41;;;;;;;1.05;0.55;;;;;;;;;;523335;28;1396;-63
2023/01/15 00:38:56;;;;;;;1.17;0.57;;;;;;;;;;524556;28;2017;-63
2023/01/15 00:39:11;;;;;;;1.53;0.70;;;;;;;;;;522853;28;1582;-63
2023/01/15 00:39:27;;;;;;;2.53;0.80;;;;;;;;;;524119;28;1554;-63
2023/01/15 00:39:42;;;;;;;3.50;0.85;;;;;;;;;;522232;28;1473;-63
2023/01/15 00:39:58;;;;;;;2.80;0.70;;;;;;;;;;522487;28;1318;-61
2023/01/15 00:40:15;;;;;;;2.42;0.70;;;;;;;;;;521164;28;1121;-61
2023/01/15 00:40:30;;;;;;;2.22;0.80;;;;;;;;;;524486;28;2146;-61
2023/01/15 00:40:51;;;;;;;1.53;0.70;;;;;;;;;;522483;28;1409;-61
2023/01/15 00:41:06;;;;;;;1.77;0.70;;;;;;;;;;524930;28;1467;-62
2023/01/15 00:41:22;;;;;;;1.50;0.73;;;;;;;;;;523106;28;1370;-62
2023/01/15 00:41:37;;;;;;;1.52;0.70;;;;;;;;;;521687;28;1180;-61
2023/01/15 00:41:53;;;;;;;2.30;0.70;;;;;;;;;;523315;28;1367;-61
2023/01/15 00:42:10;;;;;;;2.60;0.60;;;;;;;;;;521239;28;1354;-61
2023/01/15 00:42:26;;;;;;;2.25;0.70;;;;;;;;;;522718;28;1285;-61
2023/01/15 00:42:41;;;;;;;1.73;0.68;;;;;;;;;;523794;28;1406;-61
2023/01/15 00:42:57;;;;;;;1.20;0.60;;;;;;;;;;523541;28;1485;-61
2023/01/15 00:43:12;;;;;;;1.47;0.60;;;;;;;;;;522206;28;1134;-61
2023/01/15 00:43:27;;;;;;;1.90;0.60;;;;;;;;;;524352;28;1474;-60
2023/01/15 00:43:43;;;;;;;1.77;0.60;;;;;;;;;;523416;28;2090;-62
2023/01/15 00:43:58;;;;;;;2.40;0.70;;;;;;;;;;524013;28;1612;-62
2023/01/15 00:44:14;;;;;;;2.20;0.63;;;;;;;;;;524308;28;1450;-61
2023/01/15 00:44:31;;;;;;;2.30;0.70;;;;;;;;;;526371;27;1367;-62
2023/01/15 00:44:47;;;;;;;3.13;0.70;;;;;;;;;;524969;28;1292;-62
2023/01/15 00:45:08;;;;;;;2.30;0.70;;;;;;;;;;524447;28;1328;-62
2023/01/15 00:45:24;;;;;;;1.75;0.70;;;;;;;;;;523808;28;1655;-62
2023/01/15 00:45:39;;;;;;;2.17;0.73;;;;;;;;;;521757;28;1392;-61
2023/01/15 00:45:54;;;;;;;2.17;0.77;;;;;;;;;;522150;28;1542;-61
2023/01/15 00:46:09;;;;;;;2.20;0.80;;;;;;;;;;520875;28;1188;-61
2023/01/15 00:46:26;;;;;;;2.40;0.80;;;;;;;;;;520730;28;1389;-61
2023/01/15 00:46:41;;;;;;;2.97;0.90;;;;;;;;;;520146;28;2575;-61
2023/01/15 00:46:56;;;;;;;3.00;1.00;;;;;;;;;;520376;28;1447;-61
2023/01/15 00:47:14;;;;;;;2.55;0.90;;;;;;;;;;520314;28;1268;-61
2023/01/15 00:47:30;;;;;;;2.53;0.80;;;;;;;;;;520264;28;1297;-61
2023/01/15 00:47:47;;;;;;;2.47;0.80;;;;;;;;;;521386;28;1208;-62
2023/01/15 00:48:03;;;;;;;2.58;0.70;;;;;;;;;;521549;28;1423;-62
2023/01/15 00:48:18;;;;;;;2.70;0.70;;;;;;;;;;521933;28;1805;-62
2023/01/15 00:48:34;;;;;;;1.93;0.77;;;;;;;;;;523753;28;1173;-62
2023/01/15 00:48:49;;;;;;;2.10;0.70;;;;;;;;;;527074;27;1422;-62
2023/01/15 00:49:05;;;;;;;2.30;0.70;;;;;;;;;;527785;27;1548;-62
2023/01/15 00:49:20;;;;;;;1.90;0.70;;;;;;;;;;526576;27;1132;-62
2023/01/15 00:49:35;;;;;;;1.80;0.60;;;;;;;;;;528454;27;1341;-62
2023/01/15 00:49:52;;;;;;;1.47;0.60;;;;;;;;;;527057;27;1715;-62
2023/01/15 00:50:10;;;;;;;1.33;0.70;;;;;;;;;;527213;27;1219;-62
2023/01/15 00:50:26;;;;;;;1.80;0.70;;;;;;;;;;528035;27;1421;-62
2023/01/15 00:50:41;;;;;;;1.67;0.60;;;;;;;;;;527947;27;1103;-62
2023/01/15 00:50:56;;;;;;;2.10;0.70;;;;;;;;;;527672;27;1965;-63
2023/01/15 00:51:12;;;;;;;2.43;0.80;;;;;;;;;;528961;27;1421;-62
2023/01/15 00:51:27;;;;;;;2.43;0.83;;;;;;;;;;528343;27;1835;-63
2023/01/15 00:51:42;;;;;;;3.25;0.90;;;;;;;;;;523345;28;1180;-62
2023/01/15 00:51:58;;;;;;;3.37;0.80;;;;;;;;;;525314;28;1583;-62
2023/01/15 00:52:13;;;;;;;2.37;0.80;;;;;;;;;;526141;28;1251;-62
2023/01/15 00:52:28;;;;;;;1.23;0.60;;;;;;;;;;524810;28;1148;-62
2023/01/15 00:52:43;;;;;;;1.23;0.50;;;;;;;;;;523777;28;1174;-62
2023/01/15 00:52:59;;;;;;;1.47;0.50;;;;;;;;;;524825;28;1434;-62
2023/01/15 00:53:14;;;;;;;1.57;0.50;;;;;;;;;;522151;28;2061;-61
2023/01/15 00:53:30;;;;;;;1.60;0.60;;;;;;;;;;519332;28;1245;-61
2023/01/15 00:53:46;;;;;;;0.95;0.57;;;;;;;;;;522005;28;1424;-61
2023/01/15 00:54:01;;;;;;;0.73;0.50;;;;;;;;;;521670;28;1471;-62
2023/01/15 00:54:17;;;;;;;1.00;0.50;;;;;;;;;;520392;28;1511;-62
2023/01/15 00:54:32;;;;;;;1.38;0.60;;;;;;;;;;520724;28;1389;-62
2023/01/15 00:54:47;;;;;;;1.70;0.60;;;;;;;;;;522255;28;2171;-62
2023/01/15 00:55:03;;;;;;;1.20;0.50;;;;;;;;;;522155;28;1165;-62
2023/01/15 00:55:18;;;;;;;0.60;0.40;;;;;;;;;;522720;28;1281;-62
2023/01/15 00:55:34;;;;;;;0.67;0.40;;;;;;;;;;524236;28;1506;-62
2023/01/15 00:55:49;;;;;;;1.23;0.50;;;;;;;;;;524295;28;1375;-62
2023/01/15 00:56:04;;;;;;;1.30;0.60;;;;;;;;;;522901;28;1013;-62
2023/01/15 00:56:20;;;;;;;1.23;0.60;;;;;;;;;;522031;28;1676;-62
2023/01/15 00:56:35;;;;;;;1.60;0.60;;;;;;;;;;522062;28;1430;-62
2023/01/15 00:56:51;;;;;;;1.27;0.50;;;;;;;;;;523109;28;1137;-62
2023/01/15 00:57:06;;;;;;;0.98;0.45;;;;;;;;;;523793;28;1252;-63
2023/01/15 00:57:22;;;;;;;1.30;0.47;;;;;;;;;;521095;28;1502;-62
2023/01/15 00:57:37;;;;;;;1.20;0.50;;;;;;;;;;518707;28;1502;-62
2023/01/15 00:57:52;;;;;;;1.30;0.60;;;;;;;;;;519106;28;1674;-62
2023/01/15 00:58:07;;;;;;;2.20;0.70;;;;;;;;;;521397;28;1443;-62
2023/01/15 00:58:23;;;;;;;2.20;0.60;;;;;;;;;;521529;28;1353;-62
2023/01/15 00:58:38;;;;;;;1.52;0.57;;;;;;;;;;520191;28;1512;-63
2023/01/15 00:58:54;;;;;;;1.57;0.50;;;;;;;;;;520067;28;1301;-62
2023/01/15 00:59:09;;;;;;;2.15;0.52;;;;;;;;;;519384;28;1458;-63
2023/01/15 00:59:24;;;;;;;2.10;0.70;;;;;;;;;;519402;28;1716;-62
2023/01/15 00:59:40;;;;;;;1.40;0.60;;;;;;;;;;521855;28;1390;-62
2023/01/15 00:59:55;;;;;;;1.50;0.50;;;;;;;;;;522107;28;1411;-63
2023/01/15 01:00:11;;;;;;;2.27;0.60;;;;;;;;;;520097;28;1400;-62
2023/01/15 01:00:26;;;;;;;2.97;0.57;;;;;;;;;;521244;28;1067;-62
2023/01/15 01:00:42;;;;;;;2.40;0.60;;;;;;;;;;520705;28;1444;-62
2023/01/15 01:00:59;;;;;;;1.23;0.50;;;;;;;;;;522629;28;1485;-62
2023/01/15 01:01:15;;;;;;;1.05;0.50;;;;;;;;;;522188;28;1496;-62
2023/01/15 01:01:30;;;;;;;1.43;0.57;;;;;;;;;;521733;28;1486;-62
2023/01/15 01:01:45;;;;;;;1.60;0.60;;;;;;;;;;523632;28;1589;-63
2023/01/15 01:02:01;;;;;;;1.50;0.67;;;;;;;;;;523171;28;1213;-62
2023/01/15 01:02:16;;;;;;;1.60;0.70;;;;;;;;;;526406;28;1236;-62
2023/01/15 01:02:31;;;;;;;1.27;0.55;;;;;;;;;;526970;28;1409;-62
2023/01/15 01:02:47;;;;;;;1.00;0.40;;;;;;;;;;524388;28;1492;-62
2023/01/15 01:03:02;;;;;;;1.27;0.50;;;;;;;;;;523016;28;1200;-62
2023/01/15 01:03:17;;;;;;;1.50;0.52;;;;;;;;;;524091;28;1371;-62
2023/01/15 01:03:33;;;;;;;1.63;0.40;;;;;;;;;;523763;28;1320;-63
2023/01/15 01:03:51;;;;;;;1.90;0.40;;;;;;;;;;524389;28;1101;-63
2023/01/15 01:04:06;;;;;;;1.23;0.40;;;;;;;;;;524715;28;1318;-62
2023/01/15 01:04:22;;;;;;;1.93;0.43;;;;;;;;;;525033;28;1799;-63
2023/01/15 01:04:37;;;;;;;2.37;0.60;;;;;;;;;;524513;28;1438;-62
2023/01/15 01:04:52;;;;;;;1.38;0.60;;;;;;;;;;526425;27;1339;-62
2023/01/15 01:05:08;;;;;;;1.47;0.60;;;;;;;;;;528478;27;1440;-64
2023/01/15 01:05:23;;;;;;;1.70;0.70;;;;;;;;;;525113;28;1313;-62
2023/01/15 01:05:38;;;;;;;1.35;0.60;;;;;;;;;;526277;28;1414;-63
2023/01/15 01:06:00;;;;;;;2.00;0.57;;;;;;;;;;526426;28;1721;-62
2023/01/15 01:06:15;;;;;;;2.08;0.60;;;;;;;;;;526116;28;1446;-62
2023/01/15 01:06:31;;;;;;;1.88;0.70;;;;;;;;;;525508;28;1387;-62
2023/01/15 01:06:46;;;;;;;2.13;0.70;;;;;;;;;;524345;28;1361;-62
2023/01/15 01:07:01;;;;;;;2.13;0.60;;;;;;;;;;524095;28;1380;-62
2023/01/15 01:07:17;;;;;;;1.83;0.67;;;;;;;;;;523733;28;1248;-62
2023/01/15 01:07:32;;;;;;;1.75;0.70;;;;;;;;;;524047;28;1770;-62
2023/01/15 01:07:47;;;;;;;1.20;0.60;;;;;;;;;;526731;28;1346;-62
2023/01/15 01:08:03;;;;;;;2.73;0.60;;;;;;;;;;526152;28;1045;-63
2023/01/15 01:08:19;;;;;;;3.40;0.70;;;;;;;;;;525670;28;1158;-62
2023/01/15 01:08:34;;;;;;;2.00;0.80;;;;;;;;;;524751;28;1680;-62
2023/01/15 01:08:49;;;;;;;2.03;0.70;;;;;;;;;;524114;28;1390;-62
2023/01/15 01:09:04;;;;;;;2.20;0.70;;;;;;;;;;523632;28;1693;-62
2023/01/15 01:09:20;;;;;;;2.90;0.67;;;;;;;;;;521314;28;1211;-62
2023/01/15 01:09:35;;;;;;;3.13;0.60;;;;;;;;;;523217;28;1363;-62
2023/01/15 01:09:50;;;;;;;2.43;0.60;;;;;;;;;;524056;28;1639;-62
2023/01/15 01:10:06;;;;;;;2.13;0.60;;;;;;;;;;521555;28;1352;-62
2023/01/15 01:10:22;;;;;;;1.65;0.70;;;;;;;;;;522212;28;1412;-62
2023/01/15 01:10:37;;;;;;;1.38;0.70;;;;;;;;;;521805;28;1746;-62
2023/01/15 01:11:07;;;;;;;1.97;0.70;;;;;;;;;;524125;28;1922;-62
2023/01/15 01:11:25;;;;;;;1.83;0.70;;;;;;;;;;525634;28;1450;-62
2023/01/15 01:11:41;;;;;;;1.40;0.70;;;;;;;;;;525176;28;1472;-62
2023/01/15 01:11:56;;;;;;;1.75;0.70;;;;;;;;;;524945;28;1528;-62
2023/01/15 01:12:12;;;;;;;1.97;0.60;;;;;;;;;;524598;28;1496;-62
2023/01/15 01:12:27;;;;;;;1.50;0.60;;;;;;;;;;526730;27;2132;-62
2023/01/15 01:12:42;;;;;;;1.20;0.60;;;;;;;;;;527697;27;1259;-63
2023/01/15 01:12:58;;;;;;;1.30;0.60;;;;;;;;;;527632;27;1457;-62
2023/01/15 01:13:13;;;;;;;1.70;0.70;;;;;;;;;;527899;27;1373;-62
2023/01/15 01:13:28;;;;;;;2.67;0.60;;;;;;;;;;527913;27;1087;-62
2023/01/15 01:13:44;;;;;;;2.47;0.50;;;;;;;;;;527393;27;1162;-62
2023/01/15 01:14:01;;;;;;;1.70;0.60;;;;;;;;;;527613;27;1549;-62
2023/01/15 01:14:16;;;;;;;2.10;0.70;;;;;;;;;;527985;27;1362;-62
2023/01/15 01:14:32;;;;;;;1.63;0.70;;;;;;;;;;527660;27;1471;-62
2023/01/15 01:14:47;;;;;;;2.08;0.70;;;;;;;;;;527990;27;1392;-62
2023/01/15 01:15:02;;;;;;;2.40;0.70;;;;;;;;;;525847;27;1478;-63
2023/01/15 01:15:19;;;;;;;1.55;0.60;;;;;;;;;;524368;28;1469;-62
2023/01/15 01:15:35;;;;;;;1.88;0.60;;;;;;;;;;521397;28;1962;-62
2023/01/15 01:15:50;;;;;;;2.03;0.60;;;;;;;;;;521586;28;1134;-62
2023/01/15 01:16:26;;;;;;;2.10;0.63;;;;;;;;;;521952;28;1308;-62
2023/01/15 01:16:41;;;;;;;1.20;0.60;;;;;;;;;;521743;28;1169;-62
2023/01/15 01:16:57;;;;;;;1.30;0.63;;;;;;;;;;522949;28;1360;-62
2023/01/15 01:17:12;;;;;;;1.37;0.60;;;;;;;;;;524606;28;2027;-62
2023/01/15 01:17:28;;;;;;;1.50;0.60;;;;;;;;;;524164;28;1312;-62
2023/01/15 01:17:43;;;;;;;1.73;0.60;;;;;;;;;;524923;28;1402;-62
2023/01/15 01:17:58;;;;;;;1.37;0.60;;;;;;;;;;525788;28;1410;-62
2023/01/15 01:18:14;;;;;;;1.50;0.63;;;;;;;;;;524911;28;1402;-62
2023/01/15 01:18:29;;;;;;;2.07;0.73;;;;;;;;;;524601;28;1057;-62
2023/01/15 01:18:44;;;;;;;2.72;0.90;;;;;;;;;;525127;28;2010;-62
2023/01/15 01:19:03;;;;;;;2.63;0.90;;;;;;;;;;526389;27;1166;-62
2023/01/15 01:19:21;;;;;;;1.85;0.80;;;;;;;;;;526318;27;1414;-62
2023/01/15 01:19:36;;;;;;;2.08;0.88;;;;;;;;;;525153;28;1316;-62
2023/01/15 01:19:51;;;;;;;2.33;0.90;;;;;;;;;;525963;28;1448;-62
2023/01/15 01:20:08;;;;;;;2.17;0.75;;;;;;;;;;522894;28;1359;-62
2023/01/15 01:20:25;;;;;;;2.80;0.70;;;;;;;;;;521443;28;1770;-62
2023/01/15 01:20:40;;;;;;;2.55;0.73;;;;;;;;;;520997;28;1313;-62
2023/01/15 01:20:56;;;;;;;1.67;0.67;;;;;;;;;;521529;28;1443;-62
2023/01/15 01:21:11;;;;;;;1.87;0.60;;;;;;;;;;521385;28;1236;-62
2023/01/15 01:21:26;;;;;;;2.75;0.80;;;;;;;;;;522781;28;1260;-62
2023/01/15 01:21:43;;;;;;;3.00;0.77;;;;;;;;;;522123;28;1103;-62
2023/01/15 01:21:58;;;;;;;1.90;0.60;;;;;;;;;;520773;28;2068;-62
2023/01/15 01:22:14;;;;;;;1.73;0.50;;;;;;;;;;521131;28;1361;-62
2023/01/15 01:22:29;;;;;;;1.67;0.53;;;;;;;;;;521868;28;1129;-62
2023/01/15 01:22:47;;;;;;;2.05;0.70;;;;;;;;;;523267;28;1402;-62
2023/01/15 01:23:02;;;;;;;1.90;0.60;;;;;;;;;;523868;28;1253;-62
2023/01/15 01:23:18;;;;;;;1.70;0.50;;;;;;;;;;524100;28;1066;-62
2023/01/15 01:23:33;;;;;;;1.75;0.60;;;;;;;;;;523484;28;1767;-62
2023/01/15 01:23:49;;;;;;;1.47;0.70;;;;;;;;;;523669;28;1375;-62
2023/01/15 01:24:06;;;;;;;1.98;0.77;;;;;;;;;;524004;28;1146;-63
2023/01/15 01:24:23;;;;;;;2.03;0.70;;;;;;;;;;525452;28;1124;-62
2023/01/15 01:24:38;;;;;;;1.60;0.68;;;;;;;;;;523933;28;1399;-62
2023/01/15 01:24:54;;;;;;;1.37;0.67;;;;;;;;;;523558;28;1345;-62
2023/01/15 01:25:09;;;;;;;1.67;0.60;;;;;;;;;;523546;28;2753;-62
2023/01/15 01:25:24;;;;;;;2.10;0.70;;;;;;;;;;524485;28;1364;-63
2023/01/15 01:25:40;;;;;;;1.90;0.70;;;;;;;;;;521867;28;1200;-62
2023/01/15 01:25:56;;;;;;;1.55;0.68;;;;;;;;;;523501;28;1371;-62
2023/01/15 01:26:12;;;;;;;3.22;0.80;;;;;;;;;;522192;28;1521;-62
2023/01/15 01:26:28;;;;;;;4.07;0.80;;;;;;;;;;522477;28;1221;-62
2023/01/15 01:26:44;;;;;;;2.30;0.70;;;;;;;;;;520894;28;1589;-62
2023/01/15 01:27:00;;;;;;;1.85;0.77;;;;;;;;;;521374;28;1098;-62
2023/01/15 01:27:17;;;;;;;2.08;0.80;;;;;;;;;;522418;28;1427;-62
2023/01/15 01:27:33;;;;;;;1.52;0.60;;;;;;;;;;523289;28;1244;-62
2023/01/15 01:27:48;;;;;;;1.30;0.52;;;;;;;;;;521260;28;1212;-63
2023/01/15 01:28:04;;;;;;;1.20;0.60;;;;;;;;;;522633;28;1360;-62
2023/01/15 01:28:19;;;;;;;1.27;0.65;;;;;;;;;;522728;28;1615;-62
2023/01/15 01:28:35;;;;;;;1.33;0.70;;;;;;;;;;523939;28;1331;-62
2023/01/15 01:28:52;;;;;;;1.38;0.70;;;;;;;;;;521913;28;1354;-62
2023/01/15 01:29:07;;;;;;;1.58;0.63;;;;;;;;;;518516;28;1428;-62
2023/01/15 01:29:23;;;;;;;1.40;0.63;;;;;;;;;;520054;28;1431;-62
2023/01/15 01:29:38;;;;;;;1.52;0.70;;;;;;;;;;520509;28;1687;-63
2023/01/15 01:29:53;;;;;;;1.77;0.73;;;;;;;;;;520521;28;1802;-62
2023/01/15 01:30:09;;;;;;;2.00;0.70;;;;;;;;;;523555;28;1407;-62
2023/01/15 01:30:25;;;;;;;2.00;0.73;;;;;;;;;;524183;28;1316;-62
2023/01/15 01:30:41;;;;;;;1.97;0.80;;;;;;;;;;524029;28;1176;-63
2023/01/15 01:30:57;;;;;;;1.55;0.80;;;;;;;;;;522951;28;1957;-62
2023/01/15 01:31:12;;;;;;;1.47;0.77;;;;;;;;;;521306;28;1383;-62
2023/01/15 01:31:27;;;;;;;2.10;0.80;;;;;;;;;;521840;28;1672;-62
2023/01/15 01:31:43;;;;;;;2.53;0.80;;;;;;;;;;519614;28;1569;-62
2023/01/15 01:31:58;;;;;;;2.63;0.90;;;;;;;;;;518410;28;1435;-63
2023/01/15 01:32:14;;;;;;;1.92;0.85;;;;;;;;;;517386;28;1484;-62
2023/01/15 01:32:29;;;;;;;1.63;0.80;;;;;;;;;;516670;28;1436;-63
2023/01/15 01:32:44;;;;;;;1.80;0.80;;;;;;;;;;516842;28;1332;-62
2023/01/15 01:32:59;;;;;;;1.40;0.80;;;;;;;;;;518221;28;1441;-63
2023/01/15 01:33:15;;;;;;;1.60;0.80;;;;;;;;;;519091;28;1387;-62
2023/01/15 01:33:30;;;;;;;1.63;0.80;;;;;;;;;;519576;28;1182;-63
2023/01/15 01:33:50;;;;;;;1.73;0.90;;;;;;;;;;520831;28;1336;-63
2023/01/15 01:34:06;;;;;;;2.30;0.80;;;;;;;;;;522295;28;2158;-63
2023/01/15 01:34:21;;;;;;;2.97;0.83;;;;;;;;;;524600;28;1350;-62
2023/01/15 01:34:36;;;;;;;2.65;0.90;;;;;;;;;;526357;27;1851;-63
2023/01/15 01:34:52;;;;;;;1.57;0.80;;;;;;;;;;527101;27;1267;-63
2023/01/15 01:35:07;;;;;;;1.13;0.70;;;;;;;;;;526326;28;1385;-62
2023/01/15 01:35:23;;;;;;;1.38;0.80;;;;;;;;;;525685;28;1395;-62
2023/01/15 01:35:38;;;;;;;1.60;0.70;;;;;;;;;;524987;28;1287;-63
2023/01/15 01:35:53;;;;;;;1.27;0.60;;;;;;;;;;525361;28;1120;-62
2023/01/15 01:36:08;;;;;;;1.45;0.73;;;;;;;;;;522340;28;1721;-62
2023/01/15 01:36:33;;;;;;;1.63;0.80;;;;;;;;;;524150;28;1532;-63
2023/01/15 01:36:48;;;;;;;2.90;0.70;;;;;;;;;;522363;28;1409;-63
2023/01/15 01:37:03;;;;;;;2.27;0.70;;;;;;;;;;524044;28;1386;-62
2023/01/15 01:37:18;;;;;;;1.37;0.60;;;;;;;;;;523865;28;1466;-62
2023/01/15 01:37:34;;;;;;;1.90;0.63;;;;;;;;;;525309;28;1407;-63
2023/01/15 01:37:50;;;;;;;1.47;0.63;;;;;;;;;;521185;28;1647;-63
2023/01/15 01:38:05;;;;;;;1.48;0.60;;;;;;;;;;523072;28;1225;-62
2023/01/15 01:38:20;;;;;;;1.40;0.60;;;;;;;;;;523137;28;1544;-63
2023/01/15 01:38:36;;;;;;;1.20;0.60;;;;;;;;;;522549;28;1294;-62
2023/01/15 01:38:51;;;;;;;1.30;0.53;;;;;;;;;;523259;28;1272;-63
2023/01/15 01:39:09;;;;;;;1.63;0.60;;;;;;;;;;525554;28;1448;-63
2023/01/15 01:39:24;;;;;;;1.50;0.55;;;;;;;;;;524436;28;1765;-63
2023/01/15 01:39:40;;;;;;;0.63;0.43;;;;;;;;;;525964;27;1412;-61
2023/01/15 01:39:55;;;;;;;1.10;0.40;;;;;;;;;;527431;27;1475;-61
2023/01/15 01:40:11;;;;;;;1.77;0.50;;;;;;;;;;523887;28;1325;-61
2023/01/15 01:40:26;;;;;;;1.38;0.50;;;;;;;;;;522640;28;1386;-61
2023/01/15 01:40:42;;;;;;;1.10;0.50;;;;;;;;;;523131;28;1521;-61
2023/01/15 01:40:57;;;;;;;2.28;0.55;;;;;;;;;;523585;28;1387;-61
2023/01/15 01:41:12;;;;;;;2.10;0.50;;;;;;;;;;523656;28;2055;-61
2023/01/15 01:41:28;;;;;;;1.37;0.60;;;;;;;;;;520597;28;1421;-61
2023/01/15 01:41:45;;;;;;;1.38;0.60;;;;;;;;;;520728;28;1390;-62
2023/01/15 01:42:00;;;;;;;0.82;0.50;;;;;;;;;;522120;28;1620;-61
2023/01/15 01:42:16;;;;;;;0.80;0.50;;;;;;;;;;523202;28;1414;-62
2023/01/15 01:42:31;;;;;;;1.00;0.50;;;;;;;;;;521639;28;1286;-61
2023/01/15 01:42:47;;;;;;;1.00;0.40;;;;;;;;;;522600;28;2009;-61